Time;durP1;ratioP1;P1;durP2;ratioP2;P2;SDS_P1;SDS_P2;PMS_P1;PMS_P2;Temp;Humidity;BMP_temperature;BMP_pressure;BME280_temperature;BME280_humidity;BME280_pressure;Samples;Min_cycle;Max_cycle;Signal;HPM_P1;HPM_P2
2023/06/17 00:02:18;;;;;;;;;;;;;;;21.16;100.00;99475.94;5004405;28;19925;-76
2023/06/17 00:04:43;;;;;;;;;;;;;;;21.17;100.00;99471.41;5008410;28;19940;-76
2023/06/17 00:07:09;;;;;;;;;;;;;;;21.18;100.00;99473.06;5002380;28;19925;-78
2023/06/17 00:09:34;;;;;;;;;;;;;;;21.18;100.00;99475.72;5007525;28;19965;-80
2023/06/17 00:12:02;;;;;;;;;;;;;;;21.21;100.00;99477.97;5008279;28;19921;-78
2023/06/17 00:14:27;;;;;;;;;;;;;;;21.15;100.00;99473.47;5005444;28;20366;-76
2023/06/17 00:16:53;;;;;;;;;;;;;;;21.13;100.00;99480.88;4991994;28;19968;-75
2023/06/17 00:19:20;;;;;;;;;;;;;;;21.10;100.00;99486.66;5007315;28;19918;-77
2023/06/17 00:21:50;;;;;;;;;;;;;;;21.18;100.00;99478.41;4994848;28;19917;-76
2023/06/17 00:24:16;;;;;;;;;;;;;;;21.19;100.00;99480.06;5007978;28;19987;-77
2023/06/17 00:26:41;;;;;;;;;;;;;;;21.08;100.00;99473.47;5001237;28;20370;-78
2023/06/17 00:29:07;;;;;;;;;;;;;;;21.05;100.00;99467.69;5008234;28;20341;-77
2023/06/17 00:31:32;;;;;;;;;;;;;;;20.98;100.00;99477.63;5009328;28;20330;-76
2023/06/17 00:33:58;;;;;;;;;;;;;;;20.97;100.00;99470.63;4994647;28;19968;-77
2023/06/17 00:36:24;;;;;;;;;;;;;;;20.96;100.00;99468.97;4991078;28;19971;-76
2023/06/17 00:38:50;;;;;;;;;;;;;;;20.88;100.00;99466.53;5006444;28;19921;-78
2023/06/17 00:41:15;;;;;;;;;;;;;;;20.81;100.00;99462.00;5003635;28;19924;-74
2023/06/17 00:43:41;;;;;;;;;;;;;;;20.76;100.00;99475.22;5007454;28;19967;-76
2023/06/17 00:46:06;;;;;;;;;;;;;;;20.72;100.00;99474.00;5010725;28;19925;-76
2023/06/17 00:48:32;;;;;;;;;;;;;;;20.74;100.00;99466.56;5007715;28;20274;-77
2023/06/17 00:51:01;;;;;;;;;;;;;;;20.63;100.00;99464.53;5004350;28;19918;-75
2023/06/17 00:53:28;;;;;;;;;;;;;;;20.59;100.00;99463.31;5001468;28;20293;-75
2023/06/17 00:55:53;;;;;;;;;;;;;;;20.55;100.00;99472.81;4991326;28;19925;-75
2023/06/17 00:58:19;;;;;;;;;;;;;;;20.56;100.00;99465.59;5004057;28;19921;-75
2023/06/17 01:00:44;;;;;;;;;;;;;;;20.55;100.00;99462.09;5001279;28;19922;-76
2023/06/17 01:03:10;;;;;;;;;;;;;;;20.39;100.00;99457.13;5005642;28;19925;-76
2023/06/17 01:05:37;;;;;;;;;;;;;;;20.24;100.00;99461.88;5003211;28;19964;-76
2023/06/17 01:08:05;;;;;;;;;;;;;;;20.20;100.00;99468.69;5014973;28;19939;-75
2023/06/17 01:10:33;;;;;;;;;;;;;;;20.11;100.00;99460.00;5003943;28;20464;-76
2023/06/17 01:13:00;;;;;;;;;;;;;;;20.02;100.00;99459.41;5001568;28;19921;-74
2023/06/17 01:15:26;;;;;;;;;;;;;;;20.02;100.00;99451.38;5004414;28;19917;-75
2023/06/17 01:17:54;;;;;;;;;;;;;;;20.06;100.00;99457.13;4993810;28;20373;-76
2023/06/17 01:20:22;;;;;;;;;;;;;;;20.07;100.00;99453.44;5006646;28;19921;-75
2023/06/17 01:22:52;;;;;;;;;;;;;;;20.04;100.00;99459.19;5007774;28;20362;-76
2023/06/17 01:25:18;;;;;;;;;;;;;;;19.82;100.00;99466.59;4994188;28;19953;-76
2023/06/17 01:27:46;;;;;;;;;;;;;;;19.56;100.00;99461.19;5002054;28;19988;-74
2023/06/17 01:30:12;;;;;;;;;;;;;;;19.47;100.00;99452.53;5005758;28;19977;-75
2023/06/17 01:32:38;;;;;;;;;;;;;;;19.45;100.00;99459.94;5010423;28;19966;-74
2023/06/17 01:35:12;;;;;;;;;;;;;;;19.41;100.00;99455.16;5004857;28;20385;-75
2023/06/17 01:37:38;;;;;;;;;;;;;;;19.40;100.00;99453.50;5006306;28;19922;-77
2023/06/17 01:40:05;;;;;;;;;;;;;;;19.50;100.00;99462.00;5004481;28;19924;-78
2023/06/17 01:42:34;;;;;;;;;;;;;;;19.52;100.00;99466.13;5008999;28;20300;-75
2023/06/17 01:45:01;;;;;;;;;;;;;;;19.36;100.00;99465.66;4999588;28;19921;-76
2023/06/17 01:47:26;;;;;;;;;;;;;;;19.30;100.00;99463.78;5003552;28;19914;-76
2023/06/17 01:49:52;;;;;;;;;;;;;;;19.29;100.00;99459.44;5000673;28;19932;-75
2023/06/17 01:52:17;;;;;;;;;;;;;;;19.35;100.00;99455.97;5009449;28;19960;-75
2023/06/17 01:54:43;;;;;;;;;;;;;;;19.42;100.00;99459.50;5009352;28;20415;-76
2023/06/17 01:57:08;;;;;;;;;;;;;;;19.51;100.00;99460.97;5006026;28;19917;-75
2023/06/17 01:59:34;;;;;;;;;;;;;;;19.56;100.00;99467.38;4996852;28;19917;-75
2023/06/17 02:01:59;;;;;;;;;;;;;;;19.55;100.00;99470.28;5007471;28;20065;-76
2023/06/17 02:04:25;;;;;;;;;;;;;;;19.57;100.00;99468.19;5010434;28;20011;-75
2023/06/17 02:06:51;;;;;;;;;;;;;;;19.55;100.00;99470.28;5008866;28;19975;-76
2023/06/17 02:09:17;;;;;;;;;;;;;;;19.50;100.00;99478.06;5005480;28;19917;-76
2023/06/17 02:11:43;;;;;;;;;;;;;;;19.43;100.00;99478.03;5009236;28;19968;-77
2023/06/17 02:14:08;;;;;;;;;;;;;;;19.47;100.00;99478.47;4999646;28;20055;-77
2023/06/17 02:16:33;;;;;;;;;;;;;;;19.44;100.00;99473.50;5010037;28;19988;-76
2023/06/17 02:19:02;;;;;;;;;;;;;;;19.35;100.00;99474.69;4997354;28;19928;-76
2023/06/17 02:21:27;;;;;;;;;;;;;;;19.30;100.00;99466.44;5006981;28;20298;-76
2023/06/17 02:23:52;;;;;;;;;;;;;;;19.20;100.00;99466.84;5010202;28;19917;-74
2023/06/17 02:26:18;;;;;;;;;;;;;;;19.20;100.00;99467.63;5001338;28;19965;-76
2023/06/17 02:28:43;;;;;;;;;;;;;;;19.20;100.00;99472.19;5008292;28;19924;-78
2023/06/17 02:31:09;;;;;;;;;;;;;;;19.20;100.00;99478.34;5009536;28;19921;-76
2023/06/17 02:33:35;;;;;;;;;;;;;;;19.21;100.00;99490.69;5009839;28;19921;-76
2023/06/17 02:36:01;;;;;;;;;;;;;;;19.25;100.00;99496.47;4996894;28;19993;-76
2023/06/17 02:38:28;;;;;;;;;;;;;;;19.30;100.00;99487.84;4996358;28;19932;-76
2023/06/17 02:40:54;;;;;;;;;;;;;;;19.34;100.00;99484.56;5016525;28;19925;-77
2023/06/17 02:43:20;;;;;;;;;;;;;;;19.37;100.00;99483.34;5009204;28;20296;-78
2023/06/17 02:45:45;;;;;;;;;;;;;;;19.37;100.00;99496.72;4994476;28;20000;-76
2023/06/17 02:48:11;;;;;;;;;;;;;;;19.34;100.00;99495.28;5008320;28;19943;-76
2023/06/17 02:50:36;;;;;;;;;;;;;;;19.34;100.00;99491.78;5011332;28;19921;-75
2023/06/17 02:53:04;;;;;;;;;;;;;;;19.30;100.00;99493.19;5010731;28;20020;-75
2023/06/17 02:55:30;;;;;;;;;;;;;;;19.26;100.00;99491.97;4999667;28;19928;-76
2023/06/17 02:57:57;;;;;;;;;;;;;;;19.15;100.00;99501.34;5000560;28;19918;-75
2023/06/17 03:00:24;;;;;;;;;;;;;;;19.15;100.00;99502.19;5012168;28;19918;-77
2023/06/17 03:02:50;;;;;;;;;;;;;;;19.12;100.00;99489.22;5019817;28;20356;-76
2023/06/17 03:05:16;;;;;;;;;;;;;;;19.15;100.00;99490.66;5011178;28;19917;-77
2023/06/17 03:07:42;;;;;;;;;;;;;;;19.16;100.00;99492.31;5018723;28;19917;-76
2023/06/17 03:10:09;;;;;;;;;;;;;;;19.14;100.00;99499.72;5015567;28;19976;-76
2023/06/17 03:12:41;;;;;;;;;;;;;;;19.04;100.00;99494.72;4995567;28;19926;-76
2023/06/17 03:15:08;;;;;;;;;;;;;;;18.86;100.00;99490.94;5005445;28;20008;-76
2023/06/17 03:17:35;;;;;;;;;;;;;;;18.74;100.00;99493.31;4995501;28;19917;-76
2023/06/17 03:20:06;;;;;;;;;;;;;;;18.64;100.00;99498.22;5012176;28;19987;-76
2023/06/17 03:22:33;;;;;;;;;;;;;;;18.42;100.00;99506.25;5005648;28;19925;-76
2023/06/17 03:24:58;;;;;;;;;;;;;;;18.40;100.00;99505.63;5013756;28;20004;-77
2023/06/17 03:27:24;;;;;;;;;;;;;;;18.16;100.00;99506.03;5011540;28;19924;-75
2023/06/17 03:29:49;;;;;;;;;;;;;;;18.08;100.00;99514.19;5010269;28;19948;-76
2023/06/17 03:32:15;;;;;;;;;;;;;;;18.11;100.00;99519.16;5005336;28;19979;-77
2023/06/17 03:34:42;;;;;;;;;;;;;;;18.11;100.00;99513.81;5011443;28;19943;-77
2023/06/17 03:37:10;;;;;;;;;;;;;;;18.20;100.00;99512.63;4995864;28;19921;-76
2023/06/17 03:39:36;;;;;;;;;;;;;;;18.27;100.00;99521.53;5004869;28;20009;-76
2023/06/17 03:42:01;;;;;;;;;;;;;;;18.31;100.00;99525.50;5010253;28;20374;-76
2023/06/17 03:44:27;;;;;;;;;;;;;;;18.20;100.00;99520.66;5006131;22;19929;-90
2023/06/17 03:46:53;;;;;;;;;;;;;;;18.22;100.00;99529.31;4967697;28;19926;-90
2023/06/17 03:49:19;;;;;;;;;;;;;;;18.27;100.00;99540.22;4975197;28;19926;-90
2023/06/17 03:51:44;;;;;;;;;;;;;;;18.29;100.00;99532.03;4972499;28;20493;-90
2023/06/17 03:54:10;;;;;;;;;;;;;;;18.27;100.00;99544.75;4986046;28;19914;-92
2023/06/17 03:56:36;;;;;;;;;;;;;;;18.24;100.00;99540.63;4973874;28;19960;-90
2023/06/17 03:59:02;;;;;;;;;;;;;;;18.21;100.00;99545.50;4965858;28;20302;-89
2023/06/17 04:01:28;;;;;;;;;;;;;;;18.18;100.00;99546.75;4970362;28;20378;-90
2023/06/17 04:03:53;;;;;;;;;;;;;;;18.03;100.00;99543.28;4971354;28;19918;-90
2023/06/17 04:06:18;;;;;;;;;;;;;;;18.12;100.00;99547.50;4971488;28;19989;-91
2023/06/17 04:08:44;;;;;;;;;;;;;;;18.13;100.00;99549.16;4977278;28;19914;-93
2023/06/17 04:11:09;;;;;;;;;;;;;;;18.18;100.00;99545.91;4988823;28;19934;-89
2023/06/17 04:13:34;;;;;;;;;;;;;;;18.14;100.00;99539.31;4977578;28;19985;-91
2023/06/17 04:16:00;;;;;;;;;;;;;;;18.15;100.00;99539.09;4969107;28;19918;-91
2023/06/17 04:18:28;;;;;;;;;;;;;;;18.15;100.00;99541.78;4973452;28;19949;-91
2023/06/17 04:20:56;;;;;;;;;;;;;;;18.16;100.00;99543.44;4971400;28;19926;-91
2023/06/17 04:23:23;;;;;;;;;;;;;;;17.96;100.00;99547.78;4971263;28;19932;-94
2023/06/17 04:25:50;;;;;;;;;;;;;;;17.98;100.00;99545.72;4997436;28;19961;-95
2023/06/17 04:33:38;;;;;;;;;;;;;;;17.94;100.00;99561.31;5065167;28;19939;-93
2023/06/17 04:36:08;;;;;;;;;;;;;;;18.02;100.00;99558.50;5037488;28;20304;-91
2023/06/17 04:38:39;;;;;;;;;;;;;;;18.10;100.00;99554.88;5035797;28;19923;-92
2023/06/17 04:41:05;;;;;;;;;;;;;;;18.11;100.00;99564.53;5033181;28;19917;-93
2023/06/17 04:43:48;;;;;;;;;;;;;;;18.12;100.00;99570.72;5014872;28;19917;-86
2023/06/17 04:46:16;;;;;;;;;;;;;;;18.08;100.00;99566.78;5035564;28;19978;-89
2023/06/17 04:48:42;;;;;;;;;;;;;;;18.08;100.00;99572.94;5033678;28;19916;-87
2023/06/17 04:51:07;;;;;;;;;;;;;;;18.10;100.00;99581.56;5052500;28;19917;-87
2023/06/17 04:53:33;;;;;;;;;;;;;;;18.11;100.00;99575.22;5030112;28;19923;-84
2023/06/17 04:55:58;;;;;;;;;;;;;;;18.13;100.00;99578.53;5034396;28;20265;-88
2023/06/17 04:58:24;;;;;;;;;;;;;;;18.05;100.00;99589.34;5034373;28;19916;-87
2023/06/17 05:00:55;;;;;;;;;;;;;;;17.98;100.00;99593.78;5021566;28;19921;-88
2023/06/17 05:03:24;;;;;;;;;;;;;;;17.98;100.00;99588.44;5018350;28;19963;-87
2023/06/17 05:05:52;;;;;;;;;;;;;;;18.03;100.00;99602.03;5031498;28;19924;-90
2023/06/17 05:08:19;;;;;;;;;;;;;;;18.11;100.00;99593.91;5036566;28;19917;-92
2023/06/17 05:10:44;;;;;;;;;;;;;;;18.10;100.00;99594.94;5035846;28;19947;-93
2023/06/17 05:13:09;;;;;;;;;;;;;;;18.13;100.00;99586.56;5051792;28;19917;-91
2023/06/17 05:15:35;;;;;;;;;;;;;;;18.23;100.00;99592.41;5051928;28;19916;-90
2023/06/17 05:18:00;;;;;;;;;;;;;;;18.31;100.00;99594.94;5060990;28;19917;-89
2023/06/17 05:20:26;;;;;;;;;;;;;;;18.40;100.00;99599.13;5030486;28;19989;-82
2023/06/17 05:22:51;;;;;;;;;;;;;;;18.49;100.00;99613.19;5032592;28;19928;-82
2023/06/17 05:25:17;;;;;;;;;;;;;;;18.55;100.00;99603.63;5041589;28;19916;-85
2023/06/17 05:27:43;;;;;;;;;;;;;;;18.65;100.00;99601.44;5039352;28;19992;-84
2023/06/17 05:30:09;;;;;;;;;;;;;;;18.71;100.00;99608.69;5020042;28;19924;-87
2023/06/17 05:32:34;;;;;;;;;;;;;;;18.74;100.00;99605.59;5034202;28;19916;-85
2023/06/17 05:35:00;;;;;;;;;;;;;;;18.83;100.00;99608.97;5013740;28;20392;-84
2023/06/17 05:37:25;;;;;;;;;;;;;;;18.88;100.00;99607.38;5035060;28;19917;-85
2023/06/17 05:39:51;;;;;;;;;;;;;;;18.88;100.00;99602.00;5034652;28;19924;-83
2023/06/17 05:42:16;;;;;;;;;;;;;;;18.93;100.00;99615.63;5036873;28;19943;-84
2023/06/17 05:44:43;;;;;;;;;;;;;;;18.95;100.00;99613.59;5032257;28;19924;-83
2023/06/17 05:47:09;;;;;;;;;;;;;;;19.02;100.00;99613.66;5035046;28;19917;-84
2023/06/17 05:49:34;;;;;;;;;;;;;;;19.09;100.00;99615.31;5033844;28;20377;-84
2023/06/17 05:52:00;;;;;;;;;;;;;;;19.12;100.00;99619.47;5037827;28;20008;-84
2023/06/17 05:54:25;;;;;;;;;;;;;;;19.15;100.00;99625.22;5035768;28;19917;-82
2023/06/17 05:56:51;;;;;;;;;;;;;;;19.17;100.00;99623.19;5020199;28;19917;-84
2023/06/17 05:59:17;;;;;;;;;;;;;;;19.27;100.00;99622.84;5036288;28;19939;-84
2023/06/17 06:01:42;;;;;;;;;;;;;;;19.35;100.00;99629.88;5035920;28;19921;-81
2023/06/17 06:04:08;;;;;;;;;;;;;;;19.45;100.00;99625.00;5036321;28;19924;-81
2023/06/17 06:06:33;;;;;;;;;;;;;;;19.56;100.00;99621.78;5038698;28;20027;-84
2023/06/17 06:08:59;;;;;;;;;;;;;;;19.64;100.00;99632.31;5024098;28;20007;-82
2023/06/17 06:11:25;;;;;;;;;;;;;;;19.72;100.00;99628.66;5029137;28;20002;-79
2023/06/17 06:13:51;;;;;;;;;;;;;;;19.79;100.00;99638.34;5035469;28;20344;-80
2023/06/17 06:16:17;;;;;;;;;;;;;;;19.86;100.00;99633.84;5040417;28;19924;-82
2023/06/17 06:18:43;;;;;;;;;;;;;;;19.99;100.00;99639.25;5032663;28;19917;-82
2023/06/17 06:21:08;;;;;;;;;;;;;;;20.11;100.00;99644.88;5035740;28;19916;-83
2023/06/17 06:23:33;;;;;;;;;;;;;;;20.22;100.00;99648.78;5032713;28;19951;-83
2023/06/17 06:25:59;;;;;;;;;;;;;;;20.35;100.00;99643.50;5037494;28;19980;-83
2023/06/17 06:28:25;;;;;;;;;;;;;;;20.45;100.00;99649.28;5035639;28;20016;-84
2023/06/17 06:30:50;;;;;;;;;;;;;;;20.56;100.00;99650.56;5035848;28;19975;-83
2023/06/17 06:33:16;;;;;;;;;;;;;;;20.66;100.00;99654.50;5034766;28;19932;-82
2023/06/17 06:35:42;;;;;;;;;;;;;;;20.72;100.00;99653.66;5033107;28;19955;-82
2023/06/17 06:38:10;;;;;;;;;;;;;;;20.78;100.00;99654.69;5031789;28;19917;-82
2023/06/17 06:40:35;;;;;;;;;;;;;;;20.80;100.00;99661.47;5030044;28;19917;-83
2023/06/17 06:43:01;;;;;;;;;;;;;;;20.90;100.00;99657.59;5028515;28;19940;-84
2023/06/17 06:45:37;;;;;;;;;;;;;;;20.98;100.00;99654.66;5029565;28;19924;-82
2023/06/17 06:48:03;;;;;;;;;;;;;;;21.09;100.00;99659.41;5030347;28;19917;-82
2023/06/17 06:50:28;;;;;;;;;;;;;;;21.15;100.00;99664.81;5029427;28;20293;-82
2023/06/17 06:52:55;;;;;;;;;;;;;;;21.22;100.00;99657.56;5016928;28;19920;-83
2023/06/17 06:55:22;;;;;;;;;;;;;;;21.26;100.00;99652.63;5033152;28;19971;-81
2023/06/17 06:57:51;;;;;;;;;;;;;;;21.34;100.00;99663.13;5029266;28;19917;-82
2023/06/17 07:00:16;;;;;;;;;;;;;;;21.37;100.00;99667.25;5033332;28;19931;-81
2023/06/17 07:02:43;;;;;;;;;;;;;;;21.40;100.00;99664.16;5031968;28;19975;-80
2023/06/17 07:05:09;;;;;;;;;;;;;;;21.43;100.00;99653.84;5034572;28;20024;-81
2023/06/17 07:07:40;;;;;;;;;;;;;;;21.53;100.00;99659.56;5031216;28;19932;-83
2023/06/17 07:10:06;;;;;;;;;;;;;;;21.57;100.00;99660.78;5032053;28;20359;-83
2023/06/17 07:12:32;;;;;;;;;;;;;;;21.62;100.00;99662.84;5028221;28;19944;-82
2023/06/17 07:14:57;;;;;;;;;;;;;;;21.61;100.00;99662.03;5031910;28;20269;-82
2023/06/17 07:17:22;;;;;;;;;;;;;;;21.63;100.00;99667.19;5028932;28;19975;-84
2023/06/17 07:19:48;;;;;;;;;;;;;;;21.65;100.00;99674.00;5029579;28;19924;-84
2023/06/17 07:22:13;;;;;;;;;;;;;;;21.70;100.00;99665.31;5031825;28;19917;-82
2023/06/17 07:24:39;;;;;;;;;;;;;;;21.77;100.00;99667.97;5031268;28;19921;-83
2023/06/17 07:27:05;;;;;;;;;;;;;;;21.87;100.00;99668.34;5029356;28;20022;-83
2023/06/17 07:29:31;;;;;;;;;;;;;;;21.92;100.00;99663.97;5034069;28;19920;-87
2023/06/17 07:31:57;;;;;;;;;;;;;;;22.01;100.00;99667.28;5035741;28;20361;-84
2023/06/17 07:34:22;;;;;;;;;;;;;;;22.09;100.00;99669.72;5031559;28;19927;-86
2023/06/17 07:36:52;;;;;;;;;;;;;;;22.14;100.00;99672.59;5033759;28;19917;-85
2023/06/17 07:39:18;;;;;;;;;;;;;;;22.25;100.00;99673.78;5032875;28;19921;-86
2023/06/17 07:41:43;;;;;;;;;;;;;;;22.32;100.00;99675.41;5025975;28;20340;-84
2023/06/17 07:44:08;;;;;;;;;;;;;;;22.38;100.00;99669.13;5029698;28;19917;-88
2023/06/17 07:46:34;;;;;;;;;;;;;;;22.42;100.00;99666.84;5033022;28;19921;-87
2023/06/17 07:48:59;;;;;;;;;;;;;;;22.38;100.00;99674.50;5029557;28;19917;-88
2023/06/17 07:51:24;;;;;;;;;;;;;;;22.40;100.00;99672.44;5028309;28;19917;-88
2023/06/17 07:53:50;;;;;;;;;;;;;;;22.38;100.00;99662.97;5031285;28;19917;-93
2023/06/17 07:56:15;;;;;;;;;;;;;;;22.27;100.00;99664.44;5027263;28;20262;-87
2023/06/17 07:58:43;;;;;;;;;;;;;;;22.30;100.00;99666.72;5028629;28;20264;-89
2023/06/17 08:01:08;;;;;;;;;;;;;;;22.31;100.00;99663.00;5026399;28;19924;-83
2023/06/17 08:03:33;;;;;;;;;;;;;;;22.31;100.00;99659.47;5031581;28;19917;-84
2023/06/17 08:05:59;;;;;;;;;;;;;;;22.26;100.00;99654.75;5017607;28;19963;-86
2023/06/17 08:08:24;;;;;;;;;;;;;;;22.34;100.00;99650.97;5029207;28;19916;-86
2023/06/17 08:10:50;;;;;;;;;;;;;;;22.36;100.00;99646.22;5033160;28;19917;-93
2023/06/17 08:13:15;;;;;;;;;;;;;;;22.45;100.00;99650.28;5026284;28;19923;-90
2023/06/17 08:15:40;;;;;;;;;;;;;;;22.53;100.00;99646.50;5029077;28;19927;-91
2023/06/17 08:18:06;;;;;;;;;;;;;;;22.60;100.00;99640.06;5031965;28;19920;-89
2023/06/17 08:20:31;;;;;;;;;;;;;;;22.66;100.00;99643.72;5029533;28;20001;-88
2023/06/17 08:22:57;;;;;;;;;;;;;;;22.75;100.00;99639.75;5032466;28;19931;-88
2023/06/17 08:25:22;;;;;;;;;;;;;;;22.81;100.00;99639.69;5030560;28;19964;-88
2023/06/17 08:27:47;;;;;;;;;;;;;;;22.87;100.00;99629.91;5032150;28;19913;-87
2023/06/17 08:30:13;;;;;;;;;;;;;;;22.93;100.00;99628.22;5028098;28;20350;-91
2023/06/17 08:32:38;;;;;;;;;;;;;;;22.97;100.00;99635.66;5031879;28;19928;-91
2023/06/17 08:35:06;;;;;;;;;;;;;;;23.01;100.00;99631.47;5031170;28;20293;-87
2023/06/17 08:37:32;;;;;;;;;;;;;;;23.06;100.00;99630.78;5032072;28;19938;-86
2023/06/17 08:39:57;;;;;;;;;;;;;;;23.09;100.00;99625.78;5028731;28;19924;-88
2023/06/17 08:42:23;;;;;;;;;;;;;;;23.14;100.00;99631.34;5024289;28;20293;-85
2023/06/17 08:44:48;;;;;;;;;;;;;;;23.14;100.00;99631.34;5026999;28;19917;-91
2023/06/17 08:47:15;;;;;;;;;;;;;;;23.18;100.00;99621.75;5033341;28;19994;-90
2023/06/17 08:49:42;;;;;;;;;;;;;;;23.21;100.00;99624.00;5024056;28;19917;-90
2023/06/17 08:52:08;;;;;;;;;;;;;;;23.23;100.00;99624.59;5032957;28;19939;-85
2023/06/17 08:54:40;;;;;;;;;;;;;;;23.30;100.00;99623.72;5030009;28;20429;-85
2023/06/17 08:57:08;;;;;;;;;;;;;;;23.34;100.00;99630.28;5027529;28;19917;-89
2023/06/17 08:59:39;;;;;;;;;;;;;;;23.41;100.00;99631.03;5032067;28;19970;-88
2023/06/17 09:02:05;;;;;;;;;;;;;;;23.49;100.00;99628.94;5033171;28;19917;-92
2023/06/17 09:04:33;;;;;;;;;;;;;;;23.55;100.00;99627.19;5015069;28;19924;-86
2023/06/17 09:06:59;;;;;;;;;;;;;;;23.61;100.00;99620.91;5025649;28;19928;-90
2023/06/17 09:09:24;;;;;;;;;;;;;;;23.66;100.00;99615.66;5034734;28;20389;-79
2023/06/17 09:11:51;;;;;;;;;;;;;;;23.69;100.00;99612.50;5026069;28;19916;-81
2023/06/17 09:14:17;;;;;;;;;;;;;;;23.67;100.00;99617.31;5024377;28;19921;-79
2023/06/17 09:16:43;;;;;;;;;;;;;;;23.66;100.00;99612.97;5027937;28;20022;-74
2023/06/17 09:19:09;;;;;;;;;;;;;;;23.69;100.00;99612.50;5029754;28;20308;-75
2023/06/17 09:21:35;;;;;;;;;;;;;;;23.73;100.00;99613.72;5030279;28;19924;-77
2023/06/17 09:24:02;;;;;;;;;;;;;;;23.81;100.00;99616.09;5030027;28;19927;-87
2023/06/17 09:26:28;;;;;;;;;;;;;;;23.88;100.00;99611.44;5030885;28;19917;-90
2023/06/17 09:28:59;;;;;;;;;;;;;;;23.93;100.00;99603.50;5031129;28;19944;-87
2023/06/17 09:31:25;;;;;;;;;;;;;;;23.97;100.00;99599.31;5030267;28;20270;-84
2023/06/17 09:33:50;;;;;;;;;;;;;;;23.99;100.00;99602.59;5051256;28;19924;-86
2023/06/17 09:36:15;;;;;;;;;;;;;;;24.04;100.00;99594.63;5037542;28;20268;-85
2023/06/17 09:38:41;;;;;;;;;;;;;;;24.11;100.00;99594.53;5050119;28;19928;-82
2023/06/17 09:41:06;;;;;;;;;;;;;;;24.19;100.00;99593.44;5044674;28;19946;-75
2023/06/17 09:43:33;;;;;;;;;;;;;;;24.25;100.00;99595.22;5046381;28;19916;-76
2023/06/17 09:45:59;;;;;;;;;;;;;;;24.27;100.00;99593.13;5042280;28;19916;-76
2023/06/17 09:48:30;;;;;;;;;;;;;;;24.31;100.00;99584.31;5046474;28;19969;-75
2023/06/17 09:50:56;;;;;;;;;;;;;;;24.37;100.00;99583.41;5045558;28;19916;-75
2023/06/17 09:53:23;;;;;;;;;;;;;;;24.42;100.00;99591.63;5047780;28;20266;-79
2023/06/17 09:55:55;;;;;;;;;;;;;;;24.48;100.00;99579.06;5048467;28;19917;-77
2023/06/17 09:58:21;;;;;;;;;;;;;;;24.53;100.00;99573.81;5046297;28;19970;-76
2023/06/17 10:00:46;;;;;;;;;;;;;;;24.60;100.00;99569.13;5046752;28;19921;-79
2023/06/17 10:03:11;;;;;;;;;;;;;;;24.68;100.00;99581.47;5043423;28;19924;-77
2023/06/17 10:05:37;;;;;;;;;;;;;;;24.73;100.00;99570.78;5045526;28;20380;-79
2023/06/17 10:08:04;;;;;;;;;;;;;;;24.78;100.00;99573.59;5051190;28;20006;-78
2023/06/17 10:10:29;;;;;;;;;;;;;;;24.84;100.00;99568.09;5047150;28;19970;-78
2023/06/17 10:13:00;;;;;;;;;;;;;;;24.88;100.00;99569.28;5054006;28;20370;-82
2023/06/17 10:15:26;;;;;;;;;;;;;;;24.87;100.00;99569.47;5049863;28;19931;-77
2023/06/17 10:17:53;;;;;;;;;;;;;;;24.75;100.00;99564.06;5052061;28;20395;-76
2023/06/17 10:20:20;;;;;;;;;;;;;;;24.78;100.00;99555.53;5030488;28;20277;-81
2023/06/17 10:22:46;;;;;;;;;;;;;;;24.77;100.00;99551.19;5053123;28;19974;-85
2023/06/17 10:25:14;;;;;;;;;;;;;;;24.80;100.00;99552.56;5049779;28;19912;-82
2023/06/17 10:27:40;;;;;;;;;;;;;;;24.90;100.00;99554.72;5051901;28;19928;-83
2023/06/17 10:30:22;;;;;;;;;;;;;;;24.97;100.00;99550.03;5049693;28;19917;-83
2023/06/17 10:32:51;;;;;;;;;;;;;;;25.05;100.00;99552.34;5051639;28;19928;-82
2023/06/17 10:35:19;;;;;;;;;;;;;;;25.11;100.00;99548.72;5062668;28;19978;-83
2023/06/17 10:37:47;;;;;;;;;;;;;;;25.16;99.06;99548.81;5050506;28;19917;-83
2023/06/17 10:40:18;;;;;;;;;;;;;;;25.21;100.00;99551.66;5052833;28;19922;-83
2023/06/17 10:43:02;;;;;;;;;;;;;;;25.27;100.00;99534.50;5052241;28;19973;-83
2023/06/17 10:45:29;;;;;;;;;;;;;;;25.34;100.00;99539.75;5031059;28;19963;-83
2023/06/17 10:48:14;;;;;;;;;;;;;;;25.40;100.00;99541.47;5052798;28;19970;-84
2023/06/17 10:50:41;;;;;;;;;;;;;;;25.42;99.50;99532.09;5050992;28;19963;-84
2023/06/17 10:53:07;;;;;;;;;;;;;;;25.45;99.92;99537.00;5051310;28;19921;-83
2023/06/17 10:55:32;;;;;;;;;;;;;;;25.52;99.63;99535.00;5055088;28;19917;-82
2023/06/17 10:57:58;;;;;;;;;;;;;;;25.59;100.00;99530.31;5055928;28;19924;-82
2023/06/17 11:00:23;;;;;;;;;;;;;;;25.68;100.00;99531.53;5035055;28;19923;-80
2023/06/17 11:02:48;;;;;;;;;;;;;;;25.72;98.35;99531.09;5052453;28;19921;-82
2023/06/17 11:05:15;;;;;;;;;;;;;;;25.77;98.59;99523.06;5052683;28;19964;-84
2023/06/17 11:07:40;;;;;;;;;;;;;;;25.84;98.51;99526.44;5052197;28;19923;-84
2023/06/17 11:10:06;;;;;;;;;;;;;;;25.89;98.12;99519.25;5049495;28;19917;-84
2023/06/17 11:12:34;;;;;;;;;;;;;;;25.92;97.73;99515.25;5032554;28;19916;-84
2023/06/17 11:14:59;;;;;;;;;;;;;;;25.97;97.61;99507.22;5048204;28;19970;-83
2023/06/17 11:17:25;;;;;;;16.43;13.37;;;;;;;26.03;97.23;99506.25;5052638;28;19917;-84
2023/06/17 11:19:50;;;;;;;15.35;13.02;;;;;;;26.08;96.50;99509.84;5050283;28;20111;-84
2023/06/17 11:22:16;;;;;;;;;;;;;;;26.14;96.25;99509.94;5051384;28;20466;-83
2023/06/17 11:24:43;;;;;;;;;;;;;;;26.18;93.27;99503.78;5052103;28;19917;-85
2023/06/17 11:27:10;;;;;;;;;;;;;;;26.21;90.02;99502.50;5051161;28;20395;-83
2023/06/17 11:29:39;;;;;;;;;;;;;;;26.21;87.48;99503.31;5051379;28;19920;-83
2023/06/17 11:32:05;;;;;;;;;;;;;;;26.20;82.96;99496.25;5052221;28;19923;-83
2023/06/17 11:34:33;;;;;;;;;;;;;;;26.24;83.49;99489.31;5049832;28;19924;-83
2023/06/17 11:37:00;;;;;;;;;;;;;;;26.29;82.05;99489.38;5048448;28;20003;-84
2023/06/17 11:39:31;;;;;;;;;;;;;;;26.34;82.43;99489.47;5046666;28;20396;-83
2023/06/17 11:42:03;;;;;;;;;;;;;;;26.41;83.90;99487.41;5052053;28;19916;-83
2023/06/17 11:44:30;;;;;;;;;;;;;;;26.55;79.11;99489.78;5047169;28;19923;-83
2023/06/17 11:46:56;;;;;;;;;;;;;;;26.62;78.48;99488.56;5049969;28;20341;-83
2023/06/17 11:49:28;;;;;;;;;;;;;;;26.70;77.22;99479.19;5050463;28;19920;-83
2023/06/17 11:51:53;;;;;;;;;;;;;;;26.81;75.05;99491.78;5051844;28;19999;-84
2023/06/17 11:54:21;;;;;;;;;;;;;;;26.90;71.74;99479.50;5050563;28;19955;-83
2023/06/17 11:56:49;;;;;;;;;;;;;;;27.02;71.04;99477.50;5051493;28;19990;-84
2023/06/17 11:59:17;;;;;;;;;;;;;;;27.10;58.90;99474.31;5051648;28;19917;-84
2023/06/17 12:01:44;;;;;;;;;;;;;;;27.19;61.87;99478.25;5031679;28;20347;-84
2023/06/17 12:04:09;;;;;;;;;;;;;;;27.29;60.45;99472.94;5052099;28;19963;-82
2023/06/17 12:06:36;;;;;;;;;;;;;;;27.39;61.07;99471.44;5049057;28;19952;-84
2023/06/17 12:09:06;;;;;;;;;;;;;;;27.50;59.16;99470.47;5051639;28;19992;-85
2023/06/17 12:11:32;;;;;;;;;;;;;;;27.61;59.24;99464.09;5044430;28;19923;-84
2023/06/17 12:13:58;;;;;;;;;;;;;;;27.74;61.06;99455.56;5048882;28;19920;-82
2023/06/17 12:16:24;;;;;;;;;;;;;;;27.93;62.48;99456.81;5049011;28;19917;-82
2023/06/17 12:18:51;;;;;;;;;;;;;;;28.06;61.42;99456.38;5047866;28;19924;-82
2023/06/17 12:21:20;;;;;;;;;;;;;;;28.22;62.53;99448.38;5047285;28;20008;-83
2023/06/17 12:23:46;;;;;;;;;;;;;;;28.39;61.87;99449.06;5051394;28;20376;-82
2023/06/17 12:26:11;;;;;;;;;;;;;;;28.58;60.86;99450.25;5047527;28;19924;-82
2023/06/17 12:28:37;;;;;;;;;;;;;;;28.75;60.50;99442.78;5050446;28;19928;-82
2023/06/17 12:31:02;;;;;;;;;;;;;;;28.92;61.66;99436.34;5048721;28;19916;-82
2023/06/17 12:33:28;;;;;;;;;;;;;;;29.10;61.67;99438.59;5049230;28;19923;-81
2023/06/17 12:35:53;;;;;;;;;;;;;;;29.28;61.82;99429.94;5032572;28;19925;-82
2023/06/17 12:38:20;;;;;;;;;;;;;;;29.46;62.16;99432.19;5051122;28;19916;-82
2023/06/17 12:40:45;;;;;;;;;;;;;;;29.62;61.48;99433.06;5032746;28;19951;-82